sensor_id;sensor_type;location;lat;lon;timestamp;pressure;altitude;pressure_sealevel;temperature;humidity
77281;BME280;66339;47.262;17.144;2023-05-10T00:01:02;100246.16;;;19.97;50.00
77281;BME280;66339;47.262;17.144;2023-05-10T00:03:29;100240.25;;;19.95;50.00
77281;BME280;66339;47.262;17.144;2023-05-10T00:06:00;100238.38;;;19.95;50.00
77281;BME280;66339;47.262;17.144;2023-05-10T00:08:31;100234.09;;;19.94;50.01
77281;BME280;66339;47.262;17.144;2023-05-10T00:10:58;100238.38;;;19.95;49.97
77281;BME280;66339;47.262;17.144;2023-05-10T00:13:25;100235.97;;;19.94;49.98
77281;BME280;66339;47.262;17.144;2023-05-10T00:15:59;100237.88;;;19.93;50.02
77281;BME280;66339;47.262;17.144;2023-05-10T00:18:30;100239.75;;;19.93;50.02
77281;BME280;66339;47.262;17.144;2023-05-10T00:21:01;100233.56;;;19.92;50.05
77281;BME280;66339;47.262;17.144;2023-05-10T00:23:31;100236.25;;;19.92;50.07
77281;BME280;66339;47.262;17.144;2023-05-10T00:26:05;100219.63;;;19.90;50.11
77281;BME280;66339;47.262;17.144;2023-05-10T00:28:32;100225.53;;;19.87;50.15
77281;BME280;66339;47.262;17.144;2023-05-10T00:31:00;100219.63;;;19.90;50.14
77281;BME280;66339;47.262;17.144;2023-05-10T00:33:29;100225.00;;;19.90;50.13
77281;BME280;66339;47.262;17.144;2023-05-10T00:36:00;100223.41;;;19.89;50.15
77281;BME280;66339;47.262;17.144;2023-05-10T00:38:29;100225.78;;;19.91;50.04
77281;BME280;66339;47.262;17.144;2023-05-10T00:40:56;100212.66;;;19.89;50.11
77281;BME280;66339;47.262;17.144;2023-05-10T00:43:30;100208.09;;;19.90;50.15
77281;BME280;66339;47.262;17.144;2023-05-10T00:46:00;100211.03;;;19.88;50.12
77281;BME280;66339;47.262;17.144;2023-05-10T00:48:34;100206.75;;;19.87;50.16
77281;BME280;66339;47.262;17.144;2023-05-10T00:51:05;100203.56;;;19.85;50.20
77281;BME280;66339;47.262;17.144;2023-05-10T00:53:32;100208.66;;;19.86;50.10
77281;BME280;66339;47.262;17.144;2023-05-10T00:56:07;100207.06;;;19.85;50.18
77281;BME280;66339;47.262;17.144;2023-05-10T00:58:38;100200.88;;;19.85;50.13
77281;BME280;66339;47.262;17.144;2023-05-10T01:01:09;100211.62;;;19.85;50.19
77281;BME280;66339;47.262;17.144;2023-05-10T01:03:40;100216.16;;;19.84;50.20
77281;BME280;66339;47.262;17.144;2023-05-10T01:06:07;100200.66;;;19.81;50.22
77281;BME280;66339;47.262;17.144;2023-05-10T01:08:34;100204.13;;;19.82;50.24
77281;BME280;66339;47.262;17.144;2023-05-10T01:11:08;100199.84;;;19.81;50.22
77281;BME280;66339;47.262;17.144;2023-05-10T01:13:36;100193.66;;;19.80;50.19
77281;BME280;66339;47.262;17.144;2023-05-10T01:16:09;100191.25;;;19.79;50.28
77281;BME280;66339;47.262;17.144;2023-05-10T01:18:40;100184.31;;;19.78;50.30
77281;BME280;66339;47.262;17.144;2023-05-10T01:29:14;100185.38;;;19.77;50.37
77281;BME280;66339;47.262;17.144;2023-05-10T01:34:42;100181.09;;;19.76;50.32
77281;BME280;66339;47.262;17.144;2023-05-10T01:37:13;100175.72;;;19.76;50.42
77281;BME280;66339;47.262;17.144;2023-05-10T01:39:47;100175.72;;;19.76;50.39
77281;BME280;66339;47.262;17.144;2023-05-10T01:42:17;100181.09;;;19.76;50.37
77281;BME280;66339;47.262;17.144;2023-05-10T01:47:26;100178.69;;;19.74;50.40
77281;BME280;66339;47.262;17.144;2023-05-10T01:49:57;100187.53;;;19.75;50.39
77281;BME280;66339;47.262;17.144;2023-05-10T01:52:36;100183.25;;;19.74;50.41
77281;BME280;66339;47.262;17.144;2023-05-10T01:55:09;100189.13;;;19.76;50.37
77281;BME280;66339;47.262;17.144;2023-05-10T01:57:39;100187.00;;;19.73;50.42
77281;BME280;66339;47.262;17.144;2023-05-10T02:00:11;100185.94;;;19.74;50.40
77281;BME280;66339;47.262;17.144;2023-05-10T02:02:39;100185.94;;;19.74;50.38
77281;BME280;66339;47.262;17.144;2023-05-10T02:05:11;100185.41;;;19.72;50.38
77281;BME280;66339;47.262;17.144;2023-05-10T02:07:39;100185.41;;;19.72;50.48
77281;BME280;66339;47.262;17.144;2023-05-10T02:10:14;100168.50;;;19.71;50.44
77281;BME280;66339;47.262;17.144;2023-05-10T02:12:46;100174.69;;;19.72;50.43
77281;BME280;66339;47.262;17.144;2023-05-10T02:15:15;100178.16;;;19.72;50.41
77281;BME280;66339;47.262;17.144;2023-05-10T02:17:44;100167.72;;;19.71;50.42
77281;BME280;66339;47.262;17.144;2023-05-10T02:20:16;100174.69;;;19.72;50.36
77281;BME280;66339;47.262;17.144;2023-05-10T02:22:49;100172.00;;;19.72;50.39
77281;BME280;66339;47.262;17.144;2023-05-10T02:25:18;100173.06;;;19.71;50.41
77281;BME280;66339;47.262;17.144;2023-05-10T02:27:49;100168.50;;;19.71;50.42
77281;BME280;66339;47.262;17.144;2023-05-10T02:30:18;100163.94;;;19.72;50.42
77281;BME280;66339;47.262;17.144;2023-05-10T02:32:45;100158.56;;;19.72;50.36
77281;BME280;66339;47.262;17.144;2023-05-10T02:35:13;100164.50;;;19.69;50.36
77281;BME280;66339;47.262;17.144;2023-05-10T02:37:44;100169.84;;;19.69;50.42
77281;BME280;66339;47.262;17.144;2023-05-10T02:40:13;100164.22;;;19.70;50.40
77281;BME280;66339;47.262;17.144;2023-05-10T02:42:43;100167.19;;;19.69;50.42
77281;BME280;66339;47.262;17.144;2023-05-10T02:45:14;100159.97;;;19.69;50.38
77281;BME280;66339;47.262;17.144;2023-05-10T02:47:42;100165.06;;;19.66;50.45
77281;BME280;66339;47.262;17.144;2023-05-10T02:50:09;100163.19;;;19.66;50.39
77281;BME280;66339;47.262;17.144;2023-05-10T02:52:39;100162.91;;;19.68;50.27
77281;BME280;66339;47.262;17.144;2023-05-10T02:55:07;100167.47;;;19.67;50.31
77281;BME280;66339;47.262;17.144;2023-05-10T02:57:37;100166.37;;;19.68;50.37
77281;BME280;66339;47.262;17.144;2023-05-10T03:00:05;100169.06;;;19.68;50.36
77281;BME280;66339;47.262;17.144;2023-05-10T03:02:39;100170.94;;;19.68;50.32
77281;BME280;66339;47.262;17.144;2023-05-10T03:05:11;100169.34;;;19.67;50.30
77281;BME280;66339;47.262;17.144;2023-05-10T03:07:44;100163.44;;;19.65;50.35
77281;BME280;66339;47.262;17.144;2023-05-10T03:10:17;100163.44;;;19.65;50.38
77281;BME280;66339;47.262;17.144;2023-05-10T03:16:05;100164.84;;;19.62;50.34
77281;BME280;66339;47.262;17.144;2023-05-10T03:18:48;100166.66;;;19.67;50.34
77281;BME280;66339;47.262;17.144;2023-05-10T03:21:22;100161.84;;;19.64;50.36
77281;BME280;66339;47.262;17.144;2023-05-10T03:23:59;100156.50;;;19.64;50.42
77281;BME280;66339;47.262;17.144;2023-05-10T03:26:30;100156.50;;;19.64;50.41
77281;BME280;66339;47.262;17.144;2023-05-10T03:28:59;100156.50;;;19.64;50.36
77281;BME280;66339;47.262;17.144;2023-05-10T03:31:30;100158.09;;;19.65;50.33
77281;BME280;66339;47.262;17.144;2023-05-10T03:34:01;100149.53;;;19.62;50.43
77281;BME280;66339;47.262;17.144;2023-05-10T03:36:31;100158.66;;;19.61;50.44
77281;BME280;66339;47.262;17.144;2023-05-10T03:38:59;100158.66;;;19.61;50.43
77281;BME280;66339;47.262;17.144;2023-05-10T03:41:29;100166.44;;;19.63;50.41
77281;BME280;66339;47.262;17.144;2023-05-10T03:43:56;100162.37;;;19.60;50.48
77281;BME280;66339;47.262;17.144;2023-05-10T03:46:24;100166.16;;;19.59;50.49
77281;BME280;66339;47.262;17.144;2023-05-10T03:48:51;100166.16;;;19.59;50.45
77281;BME280;66339;47.262;17.144;2023-05-10T03:51:21;100179.06;;;19.57;50.47
77281;BME280;66339;47.262;17.144;2023-05-10T03:53:49;100171.53;;;19.59;50.46
77281;BME280;66339;47.262;17.144;2023-05-10T03:56:16;100177.44;;;19.56;50.48
77281;BME280;66339;47.262;17.144;2023-05-10T03:58:51;100186.03;;;19.58;50.44
77281;BME280;66339;47.262;17.144;2023-05-10T04:01:18;100178.22;;;19.57;50.40
77281;BME280;66339;47.262;17.144;2023-05-10T04:03:48;100169.13;;;19.58;50.34
77281;BME280;66339;47.262;17.144;2023-05-10T04:06:15;100175.28;;;19.58;50.23
77281;BME280;66339;47.262;17.144;2023-05-10T04:08:46;100166.44;;;19.58;50.41
77281;BME280;66339;47.262;17.144;2023-05-10T04:11:16;100160.78;;;19.59;50.54
77281;BME280;66339;47.262;17.144;2023-05-10T04:13:47;100173.69;;;19.62;50.66
77281;BME280;66339;47.262;17.144;2023-05-10T04:16:20;100177.41;;;19.67;50.69
77281;BME280;66339;47.262;17.144;2023-05-10T04:18:48;100171.47;;;19.70;50.66
77281;BME280;66339;47.262;17.144;2023-05-10T04:21:22;100183.00;;;19.70;50.62
77281;BME280;66339;47.262;17.144;2023-05-10T04:23:49;100184.59;;;19.71;50.65
77281;BME280;66339;47.262;17.144;2023-05-10T04:26:19;100178.41;;;19.76;50.59
77281;BME280;66339;47.262;17.144;2023-05-10T04:28:46;100184.31;;;19.78;50.60
77281;BME280;66339;47.262;17.144;2023-05-10T04:31:20;100177.84;;;19.79;50.66
77281;BME280;66339;47.262;17.144;2023-05-10T04:33:47;100189.13;;;19.81;50.58
77281;BME280;66339;47.262;17.144;2023-05-10T04:36:15;100191.50;;;19.82;50.58
77281;BME280;66339;47.262;17.144;2023-05-10T04:38:43;100192.00;;;19.84;50.55
77281;BME280;66339;47.262;17.144;2023-05-10T04:41:13;100195.22;;;19.86;50.52
77281;BME280;66339;47.262;17.144;2023-05-10T04:43:43;100192.78;;;19.90;50.44
77281;BME280;66339;47.262;17.144;2023-05-10T04:46:14;100190.59;;;19.92;50.45
77281;BME280;66339;47.262;17.144;2023-05-10T04:48:41;100195.97;;;19.92;50.50
77281;BME280;66339;47.262;17.144;2023-05-10T04:51:12;100193.53;;;19.96;50.41
77281;BME280;66339;47.262;17.144;2023-05-10T04:53:42;100195.41;;;19.95;50.48
77281;BME280;66339;47.262;17.144;2023-05-10T04:56:23;100201.03;;;19.99;50.33
77281;BME280;66339;47.262;17.144;2023-05-10T04:58:50;100197.78;;;20.02;50.26
77281;BME280;66339;47.262;17.144;2023-05-10T05:01:17;100203.66;;;20.04;49.99
77281;BME280;66339;47.262;17.144;2023-05-10T05:03:45;100197.25;;;20.00;50.15
77281;BME280;66339;47.262;17.144;2023-05-10T05:06:15;100205.03;;;20.01;49.95
77281;BME280;66339;47.262;17.144;2023-05-10T05:08:45;100207.44;;;20.03;49.84
77281;BME280;66339;47.262;17.144;2023-05-10T05:11:12;100213.59;;;20.03;49.88
77281;BME280;66339;47.262;17.144;2023-05-10T05:13:39;100210.13;;;20.03;49.80
77281;BME280;66339;47.262;17.144;2023-05-10T05:16:08;100208.81;;;20.00;49.73
77281;BME280;66339;47.262;17.144;2023-05-10T05:18:39;100207.19;;;19.99;49.78
77281;BME280;66339;47.262;17.144;2023-05-10T05:21:13;100217.94;;;19.99;49.71
77281;BME280;66339;47.262;17.144;2023-05-10T05:23:41;100214.75;;;19.97;49.86
77281;BME280;66339;47.262;17.144;2023-05-10T05:26:08;100215.25;;;19.99;50.25
77281;BME280;66339;47.262;17.144;2023-05-10T05:28:39;100212.00;;;20.02;51.33
77281;BME280;66339;47.262;17.144;2023-05-10T05:31:11;100226.22;;;20.03;51.20
77281;BME280;66339;47.262;17.144;2023-05-10T05:33:41;100223.00;;;20.06;51.00
77281;BME280;66339;47.262;17.144;2023-05-10T05:36:13;100225.38;;;20.07;50.87
77281;BME280;66339;47.262;17.144;2023-05-10T05:38:40;100216.78;;;20.10;50.79
77281;BME280;66339;47.262;17.144;2023-05-10T05:41:10;100221.03;;;20.11;50.99
77281;BME280;66339;47.262;17.144;2023-05-10T05:43:42;100213.78;;;20.12;51.03
77281;BME280;66339;47.262;17.144;2023-05-10T05:46:11;100214.09;;;20.10;50.92
77281;BME280;66339;47.262;17.144;2023-05-10T05:48:38;100217.31;;;20.13;50.85
77281;BME280;66339;47.262;17.144;2023-05-10T05:51:07;100218.91;;;20.14;50.91
77281;BME280;66339;47.262;17.144;2023-05-10T05:53:34;100214.09;;;20.10;50.94
77281;BME280;66339;47.262;17.144;2023-05-10T05:56:07;100219.50;;;20.05;50.84
77281;BME280;66339;47.262;17.144;2023-05-10T05:58:34;100219.75;;;20.04;51.34
77281;BME280;66339;47.262;17.144;2023-05-10T06:01:03;100217.31;;;20.07;51.26
77281;BME280;66339;47.262;17.144;2023-05-10T06:03:35;100220.84;;;20.03;51.57
77281;BME280;66339;47.262;17.144;2023-05-10T06:06:02;100226.53;;;20.01;51.73
77281;BME280;66339;47.262;17.144;2023-05-10T06:08:32;100215.78;;;20.01;51.81
77281;BME280;66339;47.262;17.144;2023-05-10T06:11:05;100222.75;;;20.02;51.82
77281;BME280;66339;47.262;17.144;2023-05-10T06:13:35;100219.56;;;20.00;51.79
77281;BME280;66339;47.262;17.144;2023-05-10T06:16:05;100224.34;;;20.03;51.85
77281;BME280;66339;47.262;17.144;2023-05-10T06:18:34;100223.00;;;20.06;51.76
77281;BME280;66339;47.262;17.144;2023-05-10T06:21:04;100220.00;;;20.07;51.38
77281;BME280;66339;47.262;17.144;2023-05-10T06:23:31;100226.47;;;20.06;51.41
77281;BME280;66339;47.262;17.144;2023-05-10T06:25:58;100225.97;;;20.04;51.50
77281;BME280;66339;47.262;17.144;2023-05-10T06:28:28;100224.34;;;20.03;51.76
77281;BME280;66339;47.262;17.144;2023-05-10T06:30:59;100232.94;;;20.05;51.74
77281;BME280;66339;47.262;17.144;2023-05-10T06:33:27;100236.13;;;20.07;52.15
77281;BME280;66339;47.262;17.144;2023-05-10T06:35:59;100249.59;;;20.02;52.11
77281;BME280;66339;47.262;17.144;2023-05-10T06:38:26;100246.91;;;20.02;51.93
77281;BME280;66339;47.262;17.144;2023-05-10T06:40:56;100245.31;;;20.01;51.71
77281;BME280;66339;47.262;17.144;2023-05-10T06:43:25;100244.78;;;19.99;51.57
77281;BME280;66339;47.262;17.144;2023-05-10T06:45:52;100244.28;;;19.97;51.44
77281;BME280;66339;47.262;17.144;2023-05-10T06:48:25;100243.19;;;19.98;51.51
77281;BME280;66339;47.262;17.144;2023-05-10T06:50:55;100237.81;;;19.98;51.29
77281;BME280;66339;47.262;17.144;2023-05-10T06:53:22;100241.06;;;19.95;50.96
77281;BME280;66339;47.262;17.144;2023-05-10T06:55:53;100240.00;;;19.91;51.07
77281;BME280;66339;47.262;17.144;2023-05-10T06:58:22;100238.13;;;19.92;51.03
77281;BME280;66339;47.262;17.144;2023-05-10T07:00:49;100233.06;;;19.90;51.00
77281;BME280;66339;47.262;17.144;2023-05-10T07:03:16;100229.03;;;19.87;50.94
77281;BME280;66339;47.262;17.144;2023-05-10T07:05:45;100231.72;;;19.87;50.87
77281;BME280;66339;47.262;17.144;2023-05-10T07:08:12;100232.28;;;19.84;50.85
77281;BME280;66339;47.262;17.144;2023-05-10T07:10:38;100234.69;;;19.86;50.81
77281;BME280;66339;47.262;17.144;2023-05-10T07:13:05;100229.31;;;19.86;50.75
77281;BME280;66339;47.262;17.144;2023-05-10T07:15:38;100234.16;;;19.84;50.88
77281;BME280;66339;47.262;17.144;2023-05-10T07:18:05;100227.19;;;19.83;50.81
77281;BME280;66339;47.262;17.144;2023-05-10T07:20:32;100228.53;;;19.85;50.73
77281;BME280;66339;47.262;17.144;2023-05-10T07:23:02;100233.59;;;19.87;50.88
77281;BME280;66339;47.262;17.144;2023-05-10T07:25:29;100231.72;;;19.87;50.84
77281;BME280;66339;47.262;17.144;2023-05-10T07:27:59;100232.00;;;19.86;50.63
77281;BME280;66339;47.262;17.144;2023-05-10T07:30:30;100233.91;;;19.85;50.51
77281;BME280;66339;47.262;17.144;2023-05-10T07:32:59;100232.28;;;19.84;50.58
77281;BME280;66339;47.262;17.144;2023-05-10T07:35:26;100239.25;;;19.85;50.62
77281;BME280;66339;47.262;17.144;2023-05-10T07:37:58;100237.63;;;19.84;50.70
77281;BME280;66339;47.262;17.144;2023-05-10T07:40:35;100233.09;;;19.85;50.62
77281;BME280;66339;47.262;17.144;2023-05-10T07:43:05;100233.66;;;19.82;50.56
77281;BME280;66339;47.262;17.144;2023-05-10T07:45:33;100228.28;;;19.82;50.66
77281;BME280;66339;47.262;17.144;2023-05-10T07:48:06;100222.12;;;19.81;50.64
77281;BME280;66339;47.262;17.144;2023-05-10T07:50:33;100232.06;;;19.81;50.50
77281;BME280;66339;47.262;17.144;2023-05-10T07:53:05;100226.69;;;19.81;50.47
77281;BME280;66339;47.262;17.144;2023-05-10T07:55:38;100230.16;;;19.81;50.44
77281;BME280;66339;47.262;17.144;2023-05-10T07:58:11;100227.75;;;19.80;50.50
77281;BME280;66339;47.262;17.144;2023-05-10T08:00:38;100224.25;;;19.79;50.46
77281;BME280;66339;47.262;17.144;2023-05-10T08:03:08;100222.12;;;19.81;50.45
77281;BME280;66339;47.262;17.144;2023-05-10T08:05:37;100230.44;;;19.80;50.51
77281;BME280;66339;47.262;17.144;2023-05-10T08:08:08;100222.12;;;19.81;50.48
77281;BME280;66339;47.262;17.144;2023-05-10T08:10:35;100229.88;;;19.83;50.43
77281;BME280;66339;47.262;17.144;2023-05-10T08:13:02;100232.06;;;19.81;50.43
77281;BME280;66339;47.262;17.144;2023-05-10T08:15:32;100229.88;;;19.83;50.42
77281;BME280;66339;47.262;17.144;2023-05-10T08:18:02;100233.66;;;19.82;50.35
77281;BME280;66339;47.262;17.144;2023-05-10T08:20:32;100224.50;;;19.83;50.35
77281;BME280;66339;47.262;17.144;2023-05-10T08:23:00;100229.88;;;19.83;50.33
77281;BME280;66339;47.262;17.144;2023-05-10T08:25:29;100228.28;;;19.82;50.29
77281;BME280;66339;47.262;17.144;2023-05-10T08:28:00;100220.22;;;19.82;50.48
77281;BME280;66339;47.262;17.144;2023-05-10T08:30:30;100226.69;;;19.81;50.86
77281;BME280;66339;47.262;17.144;2023-05-10T08:33:00;100220.50;;;19.80;51.22
77281;BME280;66339;47.262;17.144;2023-05-10T08:35:33;100222.63;;;19.83;51.52
77281;BME280;66339;47.262;17.144;2023-05-10T08:38:00;100210.00;;;19.84;51.88
77281;BME280;66339;47.262;17.144;2023-05-10T08:40:31;100222.91;;;19.82;52.09
77281;BME280;66339;47.262;17.144;2023-05-10T08:43:10;100215.12;;;19.80;52.24
77281;BME280;66339;47.262;17.144;2023-05-10T08:45:41;100219.69;;;19.80;52.21
77281;BME280;66339;47.262;17.144;2023-05-10T08:48:09;100219.69;;;19.80;52.20
77281;BME280;66339;47.262;17.144;2023-05-10T08:50:40;100212.72;;;19.79;52.19
77281;BME280;66339;47.262;17.144;2023-05-10T08:53:11;100219.69;;;19.80;52.15
77281;BME280;66339;47.262;17.144;2023-05-10T08:55:44;100218.09;;;19.79;52.11
77281;BME280;66339;47.262;17.144;2023-05-10T08:58:12;100217.31;;;19.78;51.88
77281;BME280;66339;47.262;17.144;2023-05-10T09:00:45;100219.44;;;19.76;51.97
77281;BME280;66339;47.262;17.144;2023-05-10T09:03:12;100220.28;;;19.77;51.50
77281;BME280;66339;47.262;17.144;2023-05-10T09:05:42;100217.59;;;19.77;50.84
77281;BME280;66339;47.262;17.144;2023-05-10T09:08:09;100224.03;;;19.76;50.01
77281;BME280;66339;47.262;17.144;2023-05-10T09:10:36;100215.47;;;19.74;49.43
77281;BME280;66339;47.262;17.144;2023-05-10T09:13:06;100212.78;;;19.69;49.37
77281;BME280;66339;47.262;17.144;2023-05-10T09:15:38;100222.72;;;19.68;49.33
77281;BME280;66339;47.262;17.144;2023-05-10T09:18:05;100212.53;;;19.70;48.86
77281;BME280;66339;47.262;17.144;2023-05-10T09:20:31;100219.00;;;19.69;48.79
77281;BME280;66339;47.262;17.144;2023-05-10T09:22:58;100207.16;;;19.70;48.73
77281;BME280;66339;47.262;17.144;2023-05-10T09:25:32;100201.00;;;19.70;48.94
77281;BME280;66339;47.262;17.144;2023-05-10T09:28:02;100201.50;;;19.72;48.98
77281;BME280;66339;47.262;17.144;2023-05-10T09:30:38;100201.25;;;19.73;49.19
77281;BME280;66339;47.262;17.144;2023-05-10T09:33:08;100205.22;;;19.76;48.68
77281;BME280;66339;47.262;17.144;2023-05-10T09:35:35;100197.19;;;19.76;48.58
77281;BME280;66339;47.262;17.144;2023-05-10T09:38:03;100205.22;;;19.76;49.42
77281;BME280;66339;47.262;17.144;2023-05-10T09:40:33;100202.53;;;19.76;49.86
77281;BME280;66339;47.262;17.144;2023-05-10T09:43:04;100196.37;;;19.75;50.00
77281;BME280;66339;47.262;17.144;2023-05-10T09:45:33;100203.34;;;19.76;50.07
77281;BME280;66339;47.262;17.144;2023-05-10T09:48:04;100200.97;;;19.75;49.16
77281;BME280;66339;47.262;17.144;2023-05-10T09:50:39;100189.69;;;19.73;49.00
77281;BME280;66339;47.262;17.144;2023-05-10T09:53:10;100202.31;;;19.72;48.96
77281;BME280;66339;47.262;17.144;2023-05-10T09:55:42;100199.34;;;19.74;49.23
77281;BME280;66339;47.262;17.144;2023-05-10T09:58:12;100195.28;;;19.76;49.70
77281;BME280;66339;47.262;17.144;2023-05-10T10:00:42;100188.06;;;19.77;50.14
77281;BME280;66339;47.262;17.144;2023-05-10T10:03:14;100191.56;;;19.77;50.58
77281;BME280;66339;47.262;17.144;2023-05-10T10:05:49;100192.59;;;19.76;50.64
77281;BME280;66339;47.262;17.144;2023-05-10T10:08:24;100195.03;;;19.78;50.94
77281;BME280;66339;47.262;17.144;2023-05-10T10:10:58;100190.47;;;19.78;51.22
77281;BME280;66339;47.262;17.144;2023-05-10T10:13:31;100194.75;;;19.79;51.28
77281;BME280;66339;47.262;17.144;2023-05-10T10:16:04;100181.31;;;19.79;51.44
77281;BME280;66339;47.262;17.144;2023-05-10T10:18:37;100191.25;;;19.79;51.36
77281;BME280;66339;47.262;17.144;2023-05-10T10:21:08;100180.53;;;19.79;51.55
77281;BME280;66339;47.262;17.144;2023-05-10T10:23:36;100191.25;;;19.79;51.26
77281;BME280;66339;47.262;17.144;2023-05-10T10:26:09;100175.69;;;19.81;51.30
77281;BME280;66339;47.262;17.144;2023-05-10T10:31:32;100185.84;;;19.84;51.58
77281;BME280;66339;47.262;17.144;2023-05-10T10:34:15;100187.72;;;19.83;51.55
77281;BME280;66339;47.262;17.144;2023-05-10T10:36:54;100181.28;;;19.84;51.59
77281;BME280;66339;47.262;17.144;2023-05-10T10:39:21;100180.22;;;19.85;51.52
77281;BME280;66339;47.262;17.144;2023-05-10T10:41:57;100181.00;;;19.86;51.34
77281;BME280;66339;47.262;17.144;2023-05-10T10:57:31;100167.28;;;19.87;51.10
77281;BME280;66339;47.262;17.144;2023-05-10T11:00:19;100168.91;;;19.89;51.07
77281;BME280;66339;47.262;17.144;2023-05-10T11:02:50;100164.34;;;19.89;51.12
77281;BME280;66339;47.262;17.144;2023-05-10T11:05:24;100160.88;;;19.89;50.99
77281;BME280;66339;47.262;17.144;2023-05-10T11:07:58;100157.88;;;19.90;51.22
77281;BME280;66339;47.262;17.144;2023-05-10T11:10:28;100149.84;;;19.90;51.09
77281;BME280;66339;47.262;17.144;2023-05-10T11:13:08;100156.78;;;19.91;51.22
77281;BME280;66339;47.262;17.144;2023-05-10T11:15:47;100156.00;;;19.91;51.27
77281;BME280;66339;47.262;17.144;2023-05-10T11:18:17;100156.78;;;19.91;51.27
77281;BME280;66339;47.262;17.144;2023-05-10T11:20:52;100160.28;;;19.92;51.26
77281;BME280;66339;47.262;17.144;2023-05-10T11:23:31;100152.22;;;19.92;51.30
77281;BME280;66339;47.262;17.144;2023-05-10T11:25:59;100153.31;;;19.91;51.37
77281;BME280;66339;47.262;17.144;2023-05-10T11:28:33;100147.16;;;19.90;51.39
77281;BME280;66339;47.262;17.144;2023-05-10T11:31:00;100140.69;;;19.91;51.37
77281;BME280;66339;47.262;17.144;2023-05-10T11:33:27;100140.69;;;19.91;51.40
77281;BME280;66339;47.262;17.144;2023-05-10T11:35:54;100139.91;;;19.91;51.39
77281;BME280;66339;47.262;17.144;2023-05-10T11:38:24;100143.38;;;19.91;51.46
77281;BME280;66339;47.262;17.144;2023-05-10T11:40:51;100133.72;;;19.90;51.47
77281;BME280;66339;47.262;17.144;2023-05-10T11:43:20;100133.72;;;19.90;51.51
77281;BME280;66339;47.262;17.144;2023-05-10T11:45:52;100128.87;;;19.92;51.51
77281;BME280;66339;47.262;17.144;2023-05-10T11:48:19;100122.69;;;19.92;51.49
77281;BME280;66339;47.262;17.144;2023-05-10T11:50:51;100130.75;;;19.92;51.51
77281;BME280;66339;47.262;17.144;2023-05-10T11:53:19;100120.81;;;19.92;51.55
77281;BME280;66339;47.262;17.144;2023-05-10T11:55:54;100120.03;;;19.92;51.56
77281;BME280;66339;47.262;17.144;2023-05-10T11:58:21;100123.50;;;19.92;51.58
77281;BME280;66339;47.262;17.144;2023-05-10T12:00:52;100109.00;;;19.93;51.61
77281;BME280;66339;47.262;17.144;2023-05-10T12:03:23;100113.59;;;19.93;51.60
77281;BME280;66339;47.262;17.144;2023-05-10T12:05:50;100122.44;;;19.93;51.60
77281;BME280;66339;47.262;17.144;2023-05-10T12:08:25;100109.00;;;19.93;51.57
77281;BME280;66339;47.262;17.144;2023-05-10T12:10:53;100109.00;;;19.93;51.55
77281;BME280;66339;47.262;17.144;2023-05-10T12:13:20;100115.97;;;19.94;51.56
77281;BME280;66339;47.262;17.144;2023-05-10T12:15:47;100115.97;;;19.94;51.54
77281;BME280;66339;47.262;17.144;2023-05-10T12:18:14;100109.50;;;19.95;51.51
77281;BME280;66339;47.262;17.144;2023-05-10T12:20:41;100106.84;;;19.95;51.52
77281;BME280;66339;47.262;17.144;2023-05-10T12:23:08;100107.94;;;19.94;51.53
77281;BME280;66339;47.262;17.144;2023-05-10T12:25:37;100106.84;;;19.95;51.54
77281;BME280;66339;47.262;17.144;2023-05-10T12:28:07;100102.56;;;19.94;51.54
77281;BME280;66339;47.262;17.144;2023-05-10T12:30:35;100111.69;;;19.93;51.54
77281;BME280;66339;47.262;17.144;2023-05-10T12:33:12;100107.94;;;19.94;51.52
77281;BME280;66339;47.262;17.144;2023-05-10T12:35:48;100106.34;;;19.93;51.49
77281;BME280;66339;47.262;17.144;2023-05-10T12:41:00;100102.84;;;19.93;51.45
77281;BME280;66339;47.262;17.144;2023-05-10T12:43:31;100099.34;;;19.92;51.45
77281;BME280;66339;47.262;17.144;2023-05-10T12:46:00;100107.38;;;19.92;51.48
77281;BME280;66339;47.262;17.144;2023-05-10T12:48:32;100095.59;;;19.93;51.57
77281;BME280;66339;47.262;17.144;2023-05-10T12:51:02;100090.22;;;19.93;51.58
77281;BME280;66339;47.262;17.144;2023-05-10T12:53:32;100096.09;;;19.95;51.56
77281;BME280;66339;47.262;17.144;2023-05-10T12:55:59;100093.41;;;19.95;51.57
77281;BME280;66339;47.262;17.144;2023-05-10T12:58:29;100082.69;;;19.95;51.55
77281;BME280;66339;47.262;17.144;2023-05-10T13:01:02;100086.94;;;19.96;51.55
77281;BME280;66339;47.262;17.144;2023-05-10T13:03:29;100082.41;;;19.97;51.53
77281;BME280;66339;47.262;17.144;2023-05-10T13:05:58;100075.94;;;19.98;51.50
77281;BME280;66339;47.262;17.144;2023-05-10T13:08:24;100082.09;;;19.98;51.44
77281;BME280;66339;47.262;17.144;2023-05-10T13:10:58;100078.09;;;19.96;51.49
77281;BME280;66339;47.262;17.144;2023-05-10T13:13:31;100070.34;;;19.94;51.58
77281;BME280;66339;47.262;17.144;2023-05-10T13:15:58;100071.13;;;19.95;51.49
77281;BME280;66339;47.262;17.144;2023-05-10T13:18:28;100071.13;;;19.95;51.44
77281;BME280;66339;47.262;17.144;2023-05-10T13:20:55;100080.00;;;19.95;51.47
77281;BME280;66339;47.262;17.144;2023-05-10T13:23:25;100062.78;;;19.96;51.33
77281;BME280;66339;47.262;17.144;2023-05-10T13:25:56;100061.19;;;19.95;51.39
77281;BME280;66339;47.262;17.144;2023-05-10T13:28:25;100066.31;;;19.97;51.36
77281;BME280;66339;47.262;17.144;2023-05-10T13:30:55;100062.78;;;19.96;51.41